createdAt,value
2022-09-25T00:03:11.088Z,44.53
2022-09-25T00:08:13.011Z,44.11
2022-09-25T00:13:15.824Z,44.24
2022-09-25T00:18:17.185Z,44.29
2022-09-25T00:23:18.542Z,44.57
2022-09-25T00:28:19.917Z,44.53
2022-09-25T00:33:21.281Z,44.36
2022-09-25T00:38:22.646Z,44.51
2022-09-25T00:43:50.959Z,44.55
2022-09-25T00:49:05.069Z,44.46
2022-09-25T00:54:07.706Z,44.58
2022-09-25T00:59:11.384Z,44.48
2022-09-25T01:04:12.917Z,44.54
2022-09-25T01:09:14.317Z,44.47
2022-09-25T01:14:17.085Z,44.40
2022-09-25T01:19:45.314Z,44.55
2022-09-25T01:25:12.879Z,44.73
2022-09-25T01:30:18.610Z,44.59
2022-09-25T01:35:37.557Z,44.54
2022-09-25T01:40:52.456Z,44.59
2022-09-25T01:45:59.607Z,44.44
2022-09-25T01:51:31.385Z,44.59
2022-09-25T01:56:41.277Z,44.53
2022-09-25T02:01:42.796Z,44.92
2022-09-25T02:06:45.750Z,44.65
2022-09-25T02:11:48.709Z,44.58
2022-09-25T02:16:54.635Z,44.77
2022-09-25T02:21:55.816Z,44.96
2022-09-25T02:26:57.181Z,44.95
2022-09-25T02:32:00.235Z,44.68
2022-09-25T02:37:01.821Z,44.74
2022-09-25T02:42:23.323Z,45.00
2022-09-25T02:47:51.534Z,44.79
2022-09-25T02:53:15.073Z,44.83
2022-09-25T02:58:24.599Z,44.75
2022-09-25T03:03:25.957Z,45.04
2022-09-25T03:08:39.293Z,44.72
2022-09-25T03:13:41.135Z,44.71
2022-09-25T03:18:42.495Z,44.81
2022-09-25T03:23:43.917Z,44.82
2022-09-25T03:28:47.378Z,45.02
2022-09-25T03:33:48.849Z,44.97
2022-09-25T03:38:51.545Z,44.94
2022-09-25T03:43:53.750Z,45.05
2022-09-25T03:48:55.297Z,44.91
2022-09-25T03:53:56.733Z,44.96
2022-09-25T03:58:58.185Z,44.83
2022-09-25T04:04:00.981Z,44.84
2022-09-25T04:09:02.338Z,44.89
2022-09-25T04:14:04.477Z,44.73
2022-09-25T04:19:06.775Z,44.55
2022-09-25T04:24:27.041Z,44.95
2022-09-25T04:29:28.945Z,44.89
2022-09-25T04:34:30.797Z,44.80
2022-09-25T04:39:32.165Z,44.78
2022-09-25T04:44:33.519Z,44.66
2022-09-25T04:49:35.029Z,44.66
2022-09-25T04:54:36.390Z,44.82
2022-09-25T04:59:37.881Z,44.86
2022-09-25T05:04:39.334Z,44.78
2022-09-25T05:09:40.689Z,44.80
2022-09-25T05:14:42.515Z,45.00
2022-09-25T05:19:43.872Z,44.74
2022-09-25T05:24:45.226Z,44.90
2022-09-25T05:29:46.584Z,44.79
2022-09-25T05:34:47.997Z,44.64
2022-09-25T05:39:49.354Z,44.78
2022-09-25T05:44:50.717Z,44.96
2022-09-25T05:49:52.120Z,44.92
2022-09-25T05:54:54.534Z,44.95
2022-09-25T05:59:55.947Z,45.09
2022-09-25T06:04:57.314Z,44.73
2022-09-25T06:09:58.685Z,44.96
2022-09-25T06:15:00.596Z,44.93
2022-09-25T06:20:01.957Z,44.97
2022-09-25T06:25:04.413Z,44.77
2022-09-25T06:30:06.205Z,44.71
2022-09-25T06:35:07.817Z,45.05
2022-09-25T06:40:09.521Z,44.85
2022-09-25T06:45:11.493Z,44.82
2022-09-25T06:50:14.962Z,44.91
2022-09-25T06:55:16.317Z,44.94
2022-09-25T07:00:17.681Z,44.95
2022-09-25T07:05:19.080Z,44.89
2022-09-25T07:10:20.441Z,44.99
2022-09-25T07:15:22.829Z,45.11
2022-09-25T07:20:24.443Z,45.25
2022-09-25T07:25:25.879Z,45.29
2022-09-25T07:30:28.474Z,45.40
2022-09-25T07:35:29.928Z,45.17
2022-09-25T07:40:31.838Z,45.36
2022-09-25T07:45:33.232Z,45.52
2022-09-25T07:50:34.600Z,45.38
2022-09-25T07:55:35.959Z,45.48
2022-09-25T08:00:37.351Z,45.44
2022-09-25T08:05:38.720Z,45.43
2022-09-25T08:10:40.075Z,45.59
2022-09-25T08:15:41.463Z,45.49
2022-09-25T08:20:42.890Z,45.51
2022-09-25T08:25:48.461Z,45.44
2022-09-25T08:30:50.091Z,45.50
2022-09-25T08:35:59.060Z,45.57
2022-09-25T08:41:14.585Z,45.79
2022-09-25T08:46:41.212Z,45.42
2022-09-25T08:51:49.296Z,45.95
2022-09-25T08:56:53.228Z,45.85
2022-09-25T09:01:59.942Z,46.05
2022-09-25T09:07:25.959Z,45.66
2022-09-25T09:12:35.929Z,45.87
2022-09-25T09:17:41.319Z,46.03
2022-09-25T09:22:47.018Z,45.83
2022-09-25T09:28:10.169Z,46.01
2022-09-25T09:33:20.560Z,46.16
2022-09-25T09:38:28.279Z,46.04
2022-09-25T09:44:07.603Z,46.22
2022-09-25T09:49:18.161Z,46.07
2022-09-25T09:54:21.824Z,45.99
2022-09-25T09:59:26.734Z,46.29
2022-09-25T10:04:31.629Z,46.17
2022-09-25T10:09:33.040Z,45.94
2022-09-25T10:14:38.270Z,46.14
2022-09-25T10:19:46.018Z,46.08
2022-09-25T10:24:51.752Z,45.83
2022-09-25T10:30:21.599Z,46.13
2022-09-25T10:35:40.014Z,45.95
2022-09-25T10:40:41.959Z,46.12
2022-09-25T10:45:43.474Z,46.23
2022-09-25T10:50:44.889Z,46.10
2022-09-25T10:55:51.082Z,45.96
2022-09-25T11:00:53.017Z,45.90
2022-09-25T11:05:59.203Z,45.67
2022-09-25T11:11:01.329Z,45.78
2022-09-25T11:16:04.553Z,45.64
2022-09-25T11:21:06.749Z,45.68
2022-09-25T11:26:16.025Z,45.48
2022-09-25T11:31:37.662Z,45.41
2022-09-25T11:36:48.061Z,45.32
2022-09-25T11:41:51.549Z,44.82
2022-09-25T11:47:04.771Z,45.04
2022-09-25T11:52:28.258Z,44.67
2022-09-25T11:57:34.981Z,44.54
2022-09-25T12:02:48.379Z,44.45
2022-09-25T12:08:24.260Z,44.19
2022-09-25T12:13:45.438Z,43.96
2022-09-25T12:19:01.245Z,43.80
2022-09-25T12:24:08.985Z,43.94
2022-09-25T12:29:51.693Z,44.02
2022-09-25T12:35:10.922Z,43.56
2022-09-25T12:40:23.092Z,43.59
2022-09-25T12:45:33.081Z,43.60
2022-09-25T12:50:39.732Z,43.50
2022-09-25T12:55:44.018Z,43.34
2022-09-25T13:00:46.432Z,43.34
2022-09-25T13:05:52.045Z,43.56
2022-09-25T13:10:54.107Z,43.58
2022-09-25T13:15:57.120Z,43.59
2022-09-25T13:21:19.141Z,43.66
2022-09-25T13:26:24.982Z,43.86
2022-09-25T13:31:27.720Z,43.76
2022-09-25T13:36:46.288Z,43.62
2022-09-25T13:41:55.266Z,43.80
2022-09-25T13:47:25.171Z,43.81
2022-09-25T13:52:30.064Z,43.73
2022-09-25T13:57:57.187Z,43.61
2022-09-25T14:03:02.857Z,43.76
2022-09-25T14:08:08.153Z,43.94
2022-09-25T14:13:12.921Z,43.69
2022-09-25T14:18:26.158Z,43.67
2022-09-25T14:23:30.130Z,43.67
2022-09-25T14:28:35.431Z,43.98
2022-09-25T14:33:50.546Z,44.38
2022-09-25T14:38:59.510Z,43.88
2022-09-25T14:44:32.633Z,44.05
2022-09-25T14:49:40.323Z,43.96
2022-09-25T14:54:44.885Z,44.00
2022-09-25T14:59:49.536Z,44.29
2022-09-25T15:04:50.985Z,44.34
2022-09-25T15:09:55.083Z,44.42
2022-09-25T15:15:16.326Z,44.50
2022-09-25T15:20:22.047Z,44.52
2022-09-25T15:25:26.601Z,44.65
2022-09-25T15:30:27.957Z,44.62
2022-09-25T15:35:30.211Z,44.52
2022-09-25T15:40:32.052Z,44.64
2022-09-25T15:45:39.142Z,44.84
2022-09-25T15:50:43.146Z,44.94
2022-09-25T15:55:45.454Z,44.78
2022-09-25T16:01:17.675Z,44.64
2022-09-25T16:06:19.164Z,44.75
2022-09-25T16:11:24.571Z,44.85
2022-09-25T16:16:30.358Z,44.79
2022-09-25T16:21:33.565Z,45.24
2022-09-25T16:26:37.304Z,45.07
2022-09-25T16:31:43.244Z,45.00
2022-09-25T16:36:44.642Z,45.16
2022-09-25T16:41:48.397Z,45.44
2022-09-25T16:46:52.768Z,45.62
2022-09-25T16:51:54.453Z,45.68
2022-09-25T16:56:57.457Z,45.68
2022-09-25T17:02:01.238Z,45.30
2022-09-25T17:07:02.729Z,45.68
2022-09-25T17:12:10.313Z,45.93
2022-09-25T17:17:11.670Z,45.87
2022-09-25T17:22:13.040Z,45.77
2022-09-25T17:27:15.289Z,45.77
2022-09-25T17:32:17.278Z,46.03
2022-09-25T17:37:18.665Z,46.12
2022-09-25T17:42:20.040Z,45.93
2022-09-25T17:47:21.588Z,45.97
2022-09-25T17:52:22.958Z,46.21
2022-09-25T17:57:26.706Z,46.25
2022-09-25T18:02:29.500Z,46.39
2022-09-25T18:07:33.670Z,46.21
2022-09-25T18:12:35.332Z,46.49
2022-09-25T18:17:36.729Z,46.71
2022-09-25T18:22:38.334Z,46.52
2022-09-25T18:27:41.518Z,46.80
2022-09-25T18:32:44.084Z,46.83
2022-09-25T18:37:45.535Z,46.73
2022-09-25T18:42:48.182Z,46.82
2022-09-25T18:47:49.569Z,46.91
2022-09-25T18:52:51.104Z,46.87
2022-09-25T18:57:52.594Z,46.86
2022-09-25T19:02:54.135Z,47.08
2022-09-25T19:07:55.610Z,47.01
2022-09-25T19:12:57.046Z,47.02
2022-09-25T19:17:59.029Z,47.11
2022-09-25T19:23:02.405Z,47.12
2022-09-25T19:28:03.762Z,47.06
2022-09-25T19:33:05.182Z,47.36
2022-09-25T19:38:11.817Z,47.17
2022-09-25T19:43:14.030Z,47.22
2022-09-25T19:48:15.398Z,47.36
2022-09-25T19:53:18.650Z,47.35
2022-09-25T19:58:23.602Z,47.10
2022-09-25T20:03:25.238Z,47.12
2022-09-25T20:08:26.600Z,47.52
2022-09-25T20:13:27.976Z,47.27
2022-09-25T20:18:29.330Z,47.30
2022-09-25T20:23:30.721Z,47.22
2022-09-25T20:28:32.136Z,47.34
2022-09-25T20:33:35.424Z,47.35
2022-09-25T20:38:36.831Z,47.45
2022-09-25T20:43:38.452Z,47.57
2022-09-25T20:48:45.374Z,47.50
2022-09-25T20:53:50.793Z,47.39
2022-09-25T20:58:53.672Z,47.54
2022-09-25T21:03:55.210Z,47.59
2022-09-25T21:09:00.562Z,47.59
2022-09-25T21:14:02.494Z,47.52
2022-09-25T21:19:04.534Z,47.39
2022-09-25T21:24:06.187Z,47.39
2022-09-25T21:29:08.400Z,47.46
2022-09-25T21:34:11.141Z,47.40
2022-09-25T21:39:13.173Z,47.48
2022-09-25T21:44:15.355Z,47.37
2022-09-25T21:49:18.980Z,47.37
2022-09-25T21:54:20.678Z,47.46
2022-09-25T21:59:22.052Z,47.41
2022-09-25T22:04:23.407Z,47.35
2022-09-25T22:09:24.842Z,47.38
2022-09-25T22:14:26.196Z,47.41
2022-09-25T22:19:28.653Z,47.35
2022-09-25T22:24:30.022Z,47.47
2022-09-25T22:29:31.698Z,47.36
2022-09-25T22:34:33.061Z,47.53
2022-09-25T22:39:34.479Z,47.21
2022-09-25T22:44:35.834Z,47.25
2022-09-25T22:49:37.189Z,47.58
2022-09-25T22:54:38.548Z,47.45
2022-09-25T22:59:39.908Z,47.45
2022-09-25T23:04:41.277Z,47.69
2022-09-25T23:09:43.037Z,47.55
2022-09-25T23:14:44.428Z,47.75
2022-09-25T23:19:45.800Z,47.72
2022-09-25T23:24:47.157Z,47.65
2022-09-25T23:29:48.517Z,47.76
2022-09-25T23:34:49.876Z,47.75
2022-09-25T23:39:51.317Z,47.76
2022-09-25T23:44:52.673Z,47.64
2022-09-25T23:49:54.065Z,47.74
2022-09-25T23:54:57.681Z,47.73
2022-09-25T23:59:59.045Z,47.88
